Time;durP1;ratioP1;P1;durP2;ratioP2;P2;SDS_P1;SDS_P2;PMS_P1;PMS_P2;Temp;Humidity;BMP_temperature;BMP_pressure;BME280_temperature;BME280_humidity;BME280_pressure;Samples;Min_cycle;Max_cycle;Signal;HPM_P1;HPM_P2
2021/01/22 00:02:16;;;;;;;1.58;0.50;;;10.00;63.00;;;;;;5020875;28;20029;-81
2021/01/22 00:04:44;;;;;;;0.20;0.20;;;10.00;63.10;;;;;;5013610;28;20033;-82
2021/01/22 00:07:10;;;;;;;0.90;0.43;;;10.00;63.20;;;;;;5014901;28;20034;-81
2021/01/22 00:09:35;;;;;;;0.82;0.40;;;10.00;63.30;;;;;;4995974;28;20086;-81
2021/01/22 00:12:01;;;;;;;0.40;0.30;;;10.10;63.40;;;;;;5008578;28;20493;-82
2021/01/22 00:14:26;;;;;;;0.70;0.43;;;10.00;63.40;;;;;;5011303;28;20034;-79
2021/01/22 00:16:52;;;;;;;0.30;0.30;;;10.00;63.60;;;;;;5008533;28;20034;-81
2021/01/22 00:19:17;;;;;;;0.47;0.30;;;10.10;63.80;;;;;;5015195;28;20145;-81
2021/01/22 00:21:43;;;;;;;0.30;0.22;;;10.10;64.00;;;;;;5013053;28;20037;-79
2021/01/22 00:24:08;;;;;;;0.57;0.47;;;10.10;64.10;;;;;;5015653;28;20030;-81
2021/01/22 00:26:34;;;;;;;1.02;0.35;;;10.20;64.30;;;;;;5013119;28;20045;-81
2021/01/22 00:28:59;;;;;;;0.40;0.30;;;10.30;64.50;;;;;;5012250;28;20084;-82
2021/01/22 00:31:25;;;;;;;0.57;0.30;;;10.30;64.50;;;;;;5013778;28;20036;-80
2021/01/22 00:33:50;;;;;;;0.20;0.20;;;10.40;64.60;;;;;;5008740;28;20030;-78
2021/01/22 00:36:16;;;;;;;1.40;0.30;;;10.40;64.60;;;;;;4998726;28;20040;-80
2021/01/22 00:38:41;;;;;;;0.68;0.30;;;10.60;64.70;;;;;;5013463;28;20045;-81
2021/01/22 00:41:07;;;;;;;0.98;0.40;;;10.60;64.70;;;;;;5012735;28;20080;-81
2021/01/22 00:43:32;;;;;;;0.38;0.38;;;10.60;64.70;;;;;;5012389;28;20340;-80
2021/01/22 00:45:58;;;;;;;0.50;0.30;;;10.60;64.60;;;;;;5016760;28;20032;-81
2021/01/22 00:48:23;;;;;;;1.45;0.30;;;10.70;64.50;;;;;;5004839;28;20037;-82
2021/01/22 00:50:49;;;;;;;0.40;0.30;;;10.70;65.00;;;;;;5046563;22;20049;-76
2021/01/22 00:53:15;;;;;;;0.22;0.20;;;10.80;64.60;;;;;;5028122;28;20041;-76
2021/01/22 00:55:40;;;;;;;0.50;0.30;;;10.80;64.60;;;;;;5029975;28;20029;-76
2021/01/22 00:58:06;;;;;;;0.35;0.35;;;11.00;64.70;;;;;;5032026;28;20037;-75
2021/01/22 01:00:31;;;;;;;1.42;0.30;;;10.90;64.60;;;;;;5022328;28;20030;-76
2021/01/22 01:02:57;;;;;;;0.30;0.30;;;10.90;64.60;;;;;;5007894;28;20038;-76
2021/01/22 01:05:22;;;;;;;1.00;0.30;;;11.00;64.70;;;;;;5003521;28;20033;-77
2021/01/22 01:07:48;;;;;;;0.30;0.30;;;11.00;64.70;;;;;;5006180;28;20057;-76
2021/01/22 01:10:13;;;;;;;0.55;0.30;;;11.10;64.70;;;;;;5008938;28;20026;-74
2021/01/22 01:12:39;;;;;;;0.35;0.30;;;11.00;64.60;;;;;;5007693;28;20040;-76
2021/01/22 01:15:05;;;;;;;0.38;0.30;;;11.10;64.70;;;;;;5008112;28;20034;-77
2021/01/22 01:17:32;;;;;;;0.32;0.28;;;11.10;64.70;;;;;;5006682;28;20050;-76
2021/01/22 01:19:57;;;;;;;0.63;0.30;;;11.20;64.90;;;;;;5007367;28;20502;-76
2021/01/22 01:22:22;;;;;;;0.30;0.20;;;11.20;65.10;;;;;;5006062;28;20105;-76
2021/01/22 01:24:48;;;;;;;0.22;0.22;;;11.20;65.00;;;;;;5008647;28;20029;-76
2021/01/22 01:27:13;;;;;;;0.32;0.20;;;11.30;65.10;;;;;;5005390;28;20025;-76
2021/01/22 01:29:39;;;;;;;0.45;0.30;;;11.40;65.10;;;;;;5005435;28;20413;-76
2021/01/22 01:32:05;;;;;;;1.45;0.50;;;11.40;65.20;;;;;;5001994;28;20398;-76
2021/01/22 01:34:30;;;;;;;0.30;0.28;;;11.40;65.30;;;;;;5005770;28;20080;-76
2021/01/22 01:36:56;;;;;;;0.50;0.30;;;11.40;65.50;;;;;;5003760;28;20030;-76
2021/01/22 01:39:21;;;;;;;0.45;0.28;;;11.50;65.50;;;;;;5007168;28;20125;-76
2021/01/22 01:41:47;;;;;;;0.30;0.30;;;11.50;65.50;;;;;;5006046;28;20037;-76
2021/01/22 01:44:12;;;;;;;0.35;0.30;;;11.60;65.50;;;;;;5005564;28;20446;-76
2021/01/22 01:46:38;;;;;;;0.50;0.30;;;11.60;65.40;;;;;;5003846;28;20044;-76
2021/01/22 01:49:03;;;;;;;0.55;0.30;;;11.70;65.50;;;;;;5005634;28;20541;-75
2021/01/22 01:51:29;;;;;;;0.30;0.30;;;11.80;65.60;;;;;;5005566;28;20041;-76
2021/01/22 01:53:55;;;;;;;0.77;0.13;;;11.80;65.60;;;;;;5005417;28;20034;-76
2021/01/22 01:56:21;;;;;;;0.30;0.30;;;11.80;65.50;;;;;;5006304;28;20116;-75
2021/01/22 01:58:47;;;;;;;0.10;0.10;;;11.80;65.60;;;;;;5005538;28;20042;-76
2021/01/22 02:01:14;;;;;;;0.52;0.17;;;11.90;65.60;;;;;;5000730;28;20041;-76
2021/01/22 02:03:40;;;;;;;0.20;0.20;;;12.00;65.60;;;;;;5005255;28;20411;-76
2021/01/22 02:06:05;;;;;;;0.25;0.17;;;12.00;65.60;;;;;;5004631;28;20034;-75
2021/01/22 02:08:32;;;;;;;0.43;0.20;;;12.00;65.60;;;;;;5003025;28;20085;-76
2021/01/22 02:11:01;;;;;;;0.55;0.30;;;12.10;65.50;;;;;;5006321;28;20076;-76
2021/01/22 02:13:28;;;;;;;0.82;0.30;;;12.10;65.60;;;;;;5005847;28;20034;-75
2021/01/22 02:15:55;;;;;;;0.40;0.30;;;12.20;65.60;;;;;;5004114;28;20557;-75
2021/01/22 02:18:21;;;;;;;1.38;0.30;;;12.20;65.60;;;;;;5005032;28;20120;-76
2021/01/22 02:21:11;;;;;;;0.43;0.30;;;12.20;65.60;;;;;;5004325;28;20128;-76
2021/01/22 02:23:43;;;;;;;0.30;0.30;;;12.30;66.00;;;;;;4998729;28;20061;-76
2021/01/22 02:26:21;;;;;;;0.28;0.28;;;12.30;65.50;;;;;;5004540;28;20514;-76
2021/01/22 02:28:49;;;;;;;0.75;0.30;;;12.40;65.90;;;;;;5004926;28;20399;-76
2021/01/22 02:31:16;;;;;;;0.35;0.20;;;12.30;65.50;;;;;;5000003;28;20539;-76
2021/01/22 02:33:45;;;;;;;0.20;0.20;;;12.30;65.50;;;;;;5004356;28;20046;-76
2021/01/22 02:36:13;;;;;;;0.50;0.28;;;12.40;65.50;;;;;;5004659;28;20181;-76
2021/01/22 02:38:39;;;;;;;0.40;0.20;;;12.40;65.50;;;;;;4998502;28;20037;-76
2021/01/22 02:41:07;;;;;;;0.25;0.25;;;12.40;65.40;;;;;;5004314;28;20034;-76
2021/01/22 02:43:33;;;;;;;0.30;0.20;;;12.50;65.40;;;;;;5005078;28;20495;-76
2021/01/22 02:46:00;;;;;;;0.20;0.20;;;12.60;65.50;;;;;;5004666;28;20084;-74
2021/01/22 02:48:26;;;;;;;0.10;0.10;;;12.40;65.40;;;;;;5003054;28;20030;-76
2021/01/22 02:50:51;;;;;;;0.30;0.20;;;12.50;65.40;;;;;;5001546;28;20049;-75
2021/01/22 02:53:17;;;;;;;0.25;0.20;;;12.50;65.50;;;;;;5002539;28;20080;-76
2021/01/22 02:55:42;;;;;;;0.30;0.28;;;12.40;65.40;;;;;;5004369;28;20407;-76
2021/01/22 02:58:23;;;;;;;0.47;0.20;;;12.50;65.60;;;;;;5004001;28;20061;-78
2021/01/22 03:00:53;;;;;;;0.15;0.10;;;12.40;65.50;;;;;;5003531;28;20030;-76
2021/01/22 03:03:45;;;;;;;0.10;0.10;;;12.50;64.30;;;;;;4999957;28;20079;-77
2021/01/22 03:06:20;;;;;;;0.30;0.13;;;12.30;63.80;;;;;;5000838;28;20030;-76
2021/01/22 03:08:48;;;;;;;0.20;0.20;;;12.30;63.00;;;;;;5001808;28;20519;-76
2021/01/22 03:11:15;;;;;;;0.20;0.20;;;12.00;62.40;;;;;;5002240;28;20034;-76
2021/01/22 03:13:42;;;;;;;0.17;0.17;;;11.90;62.20;;;;;;5001641;28;20113;-76
2021/01/22 03:16:07;;;;;;;0.10;0.10;;;11.70;62.00;;;;;;5004336;28;20034;-76
2021/01/22 03:18:33;;;;;;;0.30;0.20;;;11.40;61.90;;;;;;5001229;28;20458;-75
2021/01/22 03:21:05;;;;;;;0.10;0.10;;;11.20;62.00;;;;;;5004233;28;20053;-77
2021/01/22 03:23:30;;;;;;;0.10;0.10;;;11.00;61.90;;;;;;5002035;28;20042;-77
2021/01/22 03:25:56;;;;;;;0.10;0.10;;;10.70;61.80;;;;;;5003261;28;20121;-76
2021/01/22 03:28:21;;;;;;;0.10;0.10;;;10.60;61.80;;;;;;5002319;28;20022;-75
2021/01/22 03:30:47;;;;;;;0.00;0.00;;;10.30;61.80;;;;;;5002198;28;20053;-77
2021/01/22 03:33:12;;;;;;;0.10;0.10;;;10.10;61.90;;;;;;5003218;28;20441;-75
2021/01/22 03:35:38;;;;;;;0.13;0.03;;;9.90;61.90;;;;;;5005802;28;20034;-75
2021/01/22 03:38:03;;;;;;;0.00;0.00;;;9.70;61.90;;;;;;5003399;28;20061;-76
2021/01/22 03:40:29;;;;;;;0.10;0.10;;;9.50;61.90;;;;;;5005357;28;20034;-75
2021/01/22 03:42:55;;;;;;;0.17;0.10;;;9.30;61.90;;;;;;5003390;28;20026;-75
2021/01/22 03:45:20;;;;;;;0.00;0.00;;;9.10;62.10;;;;;;5004235;28;20068;-76
2021/01/22 03:47:46;;;;;;;0.10;0.10;;;9.00;62.30;;;;;;4998847;28;20515;-75
2021/01/22 03:50:11;;;;;;;0.00;0.00;;;8.80;62.50;;;;;;5004832;28;20030;-75
2021/01/22 03:52:39;;;;;;;0.08;0.08;;;8.60;62.70;;;;;;5002094;28;20125;-75
2021/01/22 03:55:06;;;;;;;0.00;0.00;;;8.50;62.80;;;;;;5007350;28;20495;-76
2021/01/22 03:57:31;;;;;;;0.00;0.00;;;8.40;63.00;;;;;;5009441;28;20033;-75
2021/01/22 03:59:57;;;;;;;0.00;0.00;;;8.30;63.10;;;;;;5008546;28;20025;-76
2021/01/22 04:02:24;;;;;;;0.10;0.10;;;8.20;63.30;;;;;;5004607;28;20407;-76
2021/01/22 04:04:49;;;;;;;0.00;0.00;;;8.10;63.40;;;;;;5007292;28;20033;-75
2021/01/22 04:07:15;;;;;;;0.10;0.10;;;8.10;63.50;;;;;;5001642;28;20026;-75
2021/01/22 04:09:40;;;;;;;0.05;0.05;;;8.00;63.50;;;;;;5007162;28;20491;-76
2021/01/22 04:12:06;;;;;;;0.10;0.10;;;7.90;63.60;;;;;;5007103;28;20030;-74
2021/01/22 04:14:31;;;;;;;0.10;0.10;;;8.00;63.80;;;;;;5006338;28;20050;-76
2021/01/22 04:16:58;;;;;;;0.10;0.10;;;7.80;63.70;;;;;;5006515;28;20041;-76
2021/01/22 04:19:25;;;;;;;0.03;0.03;;;7.80;63.80;;;;;;5007872;28;20029;-75
2021/01/22 04:21:51;;;;;;;0.10;0.10;;;7.80;63.90;;;;;;5002331;28;20038;-76
2021/01/22 04:24:17;;;;;;;0.00;0.00;;;7.70;63.90;;;;;;5009092;28;20506;-77
2021/01/22 04:26:44;;;;;;;0.00;0.00;;;7.70;64.00;;;;;;5006856;28;20545;-75
2021/01/22 04:29:10;;;;;;;0.10;0.10;;;7.70;64.10;;;;;;5006651;28;20026;-76
2021/01/22 04:31:36;;;;;;;0.10;0.10;;;7.70;64.30;;;;;;5004410;28;20044;-75
2021/01/22 04:34:01;;;;;;;0.10;0.10;;;7.60;64.20;;;;;;5006827;28;20030;-75
2021/01/22 04:36:27;;;;;;;0.10;0.10;;;7.60;64.30;;;;;;5009075;28;20041;-73
2021/01/22 04:38:52;;;;;;;0.10;0.10;;;7.60;64.40;;;;;;5007900;28;20042;-76
2021/01/22 04:41:18;;;;;;;0.13;0.13;;;7.60;64.50;;;;;;5006025;28;20026;-75
2021/01/22 04:43:44;;;;;;;0.20;0.15;;;7.60;64.60;;;;;;5005760;28;20060;-76
2021/01/22 04:46:15;;;;;;;0.63;0.17;;;7.60;64.60;;;;;;4999450;28;20026;-75
2021/01/22 04:48:41;;;;;;;0.13;0.10;;;7.70;64.70;;;;;;5007576;28;20034;-75
2021/01/22 04:51:07;;;;;;;0.15;0.10;;;7.60;64.70;;;;;;5006345;28;20540;-76
2021/01/22 04:53:35;;;;;;;0.10;0.10;;;7.60;64.70;;;;;;5002962;28;20034;-75
2021/01/22 04:56:03;;;;;;;0.17;0.17;;;7.70;64.70;;;;;;5004805;28;20128;-75
2021/01/22 04:58:32;;;;;;;0.10;0.10;;;7.70;64.60;;;;;;5006175;28;20034;-76
2021/01/22 05:00:57;;;;;;;0.10;0.10;;;7.70;64.60;;;;;;5004285;28;20030;-76
2021/01/22 05:03:26;;;;;;;0.10;0.10;;;7.60;64.40;;;;;;5007383;28;20141;-77
2021/01/22 05:05:55;;;;;;;0.28;0.20;;;7.70;64.50;;;;;;5003322;28;20440;-76
2021/01/22 05:08:21;;;;;;;0.10;0.10;;;7.60;64.40;;;;;;5004668;28;20188;-76
2021/01/22 05:10:47;;;;;;;0.10;0.10;;;7.60;64.40;;;;;;5005956;28;20534;-76
2021/01/22 05:13:13;;;;;;;0.05;0.05;;;7.70;64.50;;;;;;5000776;28;20153;-76
2021/01/22 05:15:38;;;;;;;0.10;0.10;;;7.70;64.50;;;;;;5004869;28;20040;-76
2021/01/22 05:18:05;;;;;;;0.03;0.03;;;7.60;64.30;;;;;;5000811;28;20026;-76
2021/01/22 05:20:34;;;;;;;0.00;0.00;;;7.60;64.30;;;;;;5002805;28;20559;-76
2021/01/22 05:23:00;;;;;;;1.38;0.20;;;7.60;64.30;;;;;;5005659;28;20172;-75
2021/01/22 05:25:26;;;;;;;4.03;0.17;;;7.50;64.20;;;;;;5005911;28;20095;-74
2021/01/22 05:27:55;;;;;;;0.10;0.10;;;7.60;64.20;;;;;;5005161;28;20491;-76
2021/01/22 05:30:25;;;;;;;0.20;0.20;;;7.50;64.30;;;;;;5003559;28;20773;-76
2021/01/22 05:32:51;;;;;;;0.17;0.13;;;7.50;64.40;;;;;;5001406;28;20041;-76
2021/01/22 05:35:30;;;;;;;0.13;0.13;;;7.40;64.20;;;;;;5004580;28;20038;-76
2021/01/22 05:37:56;;;;;;;0.40;0.20;;;7.40;64.60;;;;;;4999856;28;20537;-76
2021/01/22 05:40:22;;;;;;;0.25;0.13;;;7.50;64.30;;;;;;5004649;28;20034;-76
2021/01/22 05:42:55;;;;;;;0.30;0.25;;;7.40;64.20;;;;;;5004545;28;20022;-76
2021/01/22 05:45:40;;;;;;;0.20;0.20;;;7.40;64.30;;;;;;4999148;28;20103;-75
2021/01/22 05:48:27;;;;;;;0.20;0.20;;;7.30;64.50;;;;;;5004274;28;20121;-76
2021/01/22 05:50:58;;;;;;;0.38;0.20;;;7.30;64.50;;;;;;5004740;28;20513;-76
2021/01/22 05:53:24;;;;;;;;;;;7.20;63.40;;;;;;5003022;28;20129;-76
2021/01/22 05:56:19;;;;;;;0.20;0.20;;;7.20;64.70;;;;;;5005052;28;19913;-76
2021/01/22 05:58:46;;;;;;;0.20;0.20;;;7.20;64.40;;;;;;5000843;28;20041;-77
2021/01/22 06:01:17;;;;;;;0.40;0.20;;;7.20;63.80;;;;;;5001760;28;20061;-75
2021/01/22 06:03:45;;;;;;;;;;;7.10;63.90;;;;;;5007408;28;20097;-76
2021/01/22 06:06:11;;;;;;;0.45;0.20;;;7.00;64.70;;;;;;5004071;28;20008;-76
2021/01/22 06:08:48;;;;;;;0.25;0.25;;;7.00;63.80;;;;;;5006186;28;20133;-76
2021/01/22 06:11:20;;;;;;;0.20;0.20;;;7.00;64.30;;;;;;5004750;28;20022;-76
2021/01/22 06:13:48;;;;;;;0.35;0.20;;;7.00;64.30;;;;;;5004767;28;20092;-75
2021/01/22 06:16:16;;;;;;;0.30;0.30;;;7.00;64.60;;;;;;5000103;28;20038;-75
2021/01/22 06:19:01;;;;;;;1.05;0.80;;;6.90;64.80;;;;;;5001266;28;20044;-75
2021/01/22 06:22:03;;;;;;;0.50;0.50;;;7.00;65.10;;;;;;5000770;28;20061;-73
2021/01/22 06:24:29;;;;;;;0.80;0.55;;;6.90;65.70;;;;;;5001607;28;20547;-76
2021/01/22 06:26:56;;;;;;;1.00;0.80;;;7.00;65.30;;;;;;5004456;28;20034;-75
2021/01/22 06:29:22;;;;;;;0.57;0.52;;;7.00;65.50;;;;;;5004565;28;20404;-74
2021/01/22 06:31:50;;;;;;;0.63;0.63;;;7.00;65.60;;;;;;5001037;28;20058;-75
2021/01/22 06:34:16;;;;;;;0.70;0.60;;;7.10;65.70;;;;;;5004838;28;20076;-76
2021/01/22 06:36:46;;;;;;;0.77;0.60;;;7.20;65.80;;;;;;5005423;28;20041;-73
2021/01/22 06:39:12;;;;;;;1.23;0.73;;;7.20;66.00;;;;;;5005610;28;20113;-75
2021/01/22 06:41:39;;;;;;;0.50;0.50;;;7.30;65.90;;;;;;5004694;28;20109;-75
2021/01/22 06:44:04;;;;;;;0.70;0.70;;;7.30;65.80;;;;;;5003823;28;20053;-75
2021/01/22 06:46:34;;;;;;;0.77;0.68;;;7.40;65.80;;;;;;5001685;28;20500;-74
2021/01/22 06:49:04;;;;;;;0.77;0.70;;;7.50;65.90;;;;;;5005597;28;20037;-74
2021/01/22 06:51:35;;;;;;;1.13;0.77;;;7.50;65.80;;;;;;5028089;22;20136;-79
2021/01/22 06:54:21;;;;;;;0.85;0.80;;;7.60;65.80;;;;;;5026617;28;20041;-79
2021/01/22 06:56:55;;;;;;;0.60;0.60;;;7.60;66.20;;;;;;5021287;28;20068;-79
2021/01/22 06:59:20;;;;;;;0.80;0.70;;;7.70;65.70;;;;;;5030734;28;20115;-79
2021/01/22 07:01:50;;;;;;;1.10;0.80;;;7.70;65.50;;;;;;5034680;28;20037;-82
2021/01/22 07:04:31;;;;;;;1.17;1.08;;;7.70;65.40;;;;;;5009859;28;20056;-82
2021/01/22 07:07:04;;;;;;;0.82;0.82;;;7.90;65.90;;;;;;5019500;28;20040;-82
2021/01/22 07:09:43;;;;;;;2.75;1.17;;;7.80;65.40;;;;;;5031070;28;20029;-83
2021/01/22 07:12:09;;;;;;;1.27;1.05;;;7.80;65.40;;;;;;5029703;28;20112;-77
2021/01/22 07:14:37;;;;;;;1.23;0.95;;;7.70;65.00;;;;;;5029365;28;20119;-82
2021/01/22 07:17:12;;;;;;;1.20;1.00;;;7.70;65.00;;;;;;5025031;28;20136;-81
2021/01/22 07:19:39;;;;;;;1.33;0.95;;;7.70;65.10;;;;;;5027959;28;20038;-82
2021/01/22 07:22:05;;;;;;;1.48;1.13;;;7.80;65.20;;;;;;5027132;28;20045;-81
2021/01/22 07:24:33;;;;;;;1.20;1.10;;;7.80;65.30;;;;;;5027459;28;20083;-82
2021/01/22 07:27:00;;;;;;;1.90;1.40;;;7.80;65.40;;;;;;5027127;28;20032;-82
2021/01/22 07:29:29;;;;;;;1.17;1.08;;;7.90;65.50;;;;;;5030545;28;20034;-80
2021/01/22 07:32:01;;;;;;;1.35;1.25;;;7.80;65.50;;;;;;5030869;28;20502;-79
2021/01/22 07:34:36;;;;;;;2.53;1.60;;;7.90;65.60;;;;;;5030177;28;20032;-78
2021/01/22 07:37:28;;;;;;;2.40;1.73;;;8.00;66.00;;;;;;5030031;28;20037;-81
2021/01/22 07:39:55;;;;;;;1.55;1.45;;;7.90;65.70;;;;;;5021958;28;20029;-82
2021/01/22 07:42:27;;;;;;;1.80;1.67;;;7.90;65.70;;;;;;5032240;28;20037;-81
2021/01/22 07:44:54;;;;;;;2.13;1.55;;;7.90;65.70;;;;;;5028356;28;20069;-79
2021/01/22 07:47:30;;;;;;;1.83;1.40;;;7.90;65.60;;;;;;5029409;28;20039;-76
2021/01/22 07:50:01;;;;;;;1.50;1.40;;;8.00;66.00;;;;;;5011227;28;20113;-77
2021/01/22 07:52:27;;;;;;;2.42;1.90;;;8.00;65.70;;;;;;5026791;28;20044;-79
2021/01/22 07:54:53;;;;;;;1.67;1.58;;;8.10;65.70;;;;;;5029670;28;20156;-80
2021/01/22 07:57:22;;;;;;;2.13;1.92;;;8.10;65.70;;;;;;5007755;28;20045;-79
2021/01/22 07:59:49;;;;;;;1.70;1.58;;;8.10;65.90;;;;;;5016606;28;20057;-78
2021/01/22 08:02:20;;;;;;;2.13;1.67;;;8.10;65.80;;;;;;5020081;28;20025;-77
2021/01/22 08:04:55;;;;;;;2.08;1.80;;;8.20;66.40;;;;;;5019843;28;20037;-77
2021/01/22 08:07:30;;;;;;;2.00;1.73;;;8.20;65.90;;;;;;5018246;28;20425;-77
2021/01/22 08:09:56;;;;;;;1.50;1.40;;;8.30;65.90;;;;;;4994760;28;20033;-77
2021/01/22 08:12:21;;;;;;;2.47;1.90;;;8.30;65.50;;;;;;5021063;28;20033;-76
2021/01/22 08:14:47;;;;;;;1.65;1.55;;;8.20;65.40;;;;;;5020855;28;20124;-78
2021/01/22 08:17:13;;;;;;;2.50;1.90;;;8.30;65.40;;;;;;5020606;28;20063;-77
2021/01/22 08:19:39;;;;;;;4.57;2.42;;;8.30;65.40;;;;;;5023049;28;20108;-77
2021/01/22 08:22:05;;;;;;;2.60;1.85;;;8.30;65.40;;;;;;5019748;28;20034;-76
2021/01/22 08:24:30;;;;;;;3.03;2.05;;;8.40;65.50;;;;;;5019162;28;20037;-78
2021/01/22 08:26:58;;;;;;;2.28;2.08;;;8.40;65.50;;;;;;5021009;28;20029;-76
2021/01/22 08:29:25;;;;;;;2.08;1.85;;;8.40;65.50;;;;;;5017445;28;20116;-78
2021/01/22 08:31:52;;;;;;;1.73;1.40;;;8.40;65.40;;;;;;5020241;28;20030;-77
2021/01/22 08:34:18;;;;;;;3.22;1.80;;;8.40;65.40;;;;;;5019163;28;20042;-77
2021/01/22 08:36:44;;;;;;;2.85;1.98;;;8.40;65.20;;;;;;5020468;28;20041;-76
2021/01/22 08:39:09;;;;;;;2.28;1.75;;;8.50;65.20;;;;;;5015181;28;20148;-75
2021/01/22 08:41:35;;;;;;;2.83;1.60;;;8.40;65.10;;;;;;5022548;28;20033;-77
2021/01/22 08:44:00;;;;;;;1.77;1.67;;;8.30;64.90;;;;;;5022152;28;20064;-76
2021/01/22 08:46:26;;;;;;;1.52;1.42;;;8.30;64.90;;;;;;5020831;28;20068;-75
2021/01/22 08:48:52;;;;;;;1.80;1.48;;;8.30;64.90;;;;;;5021540;28;20120;-77
2021/01/22 08:51:28;;;;;;;1.55;1.45;;;8.20;64.80;;;;;;5024883;28;20113;-77
2021/01/22 08:53:55;;;;;;;1.42;1.33;;;8.20;65.00;;;;;;5019045;28;20037;-77
2021/01/22 08:56:22;;;;;;;1.60;1.50;;;8.30;64.80;;;;;;5004485;28;20073;-77
2021/01/22 08:59:01;;;;;;;1.90;1.48;;;8.20;64.90;;;;;;5019493;28;20026;-77
2021/01/22 09:01:46;;;;;;;3.13;1.60;;;8.20;65.10;;;;;;5013535;28;20084;-76
2021/01/22 09:04:17;;;;;;;1.63;1.52;;;8.20;65.20;;;;;;5020748;28;20038;-77
2021/01/22 09:06:47;;;;;;;1.75;1.35;;;8.10;65.00;;;;;;5019134;28;20410;-76
2021/01/22 09:09:13;;;;;;;2.65;1.60;;;8.10;65.00;;;;;;5022095;28;20029;-75
2021/01/22 09:11:39;;;;;;;2.20;1.45;;;8.10;65.10;;;;;;5021314;28;20649;-75
2021/01/22 09:14:04;;;;;;;1.77;1.67;;;8.30;65.50;;;;;;5021855;28;20021;-77
2021/01/22 09:16:30;;;;;;;1.52;1.42;;;8.10;65.50;;;;;;5020454;28;20054;-77
2021/01/22 09:19:01;;;;;;;1.88;1.27;;;8.10;65.70;;;;;;5020382;28;20034;-78
2021/01/22 09:21:27;;;;;;;2.45;1.48;;;8.20;66.10;;;;;;5016258;28;20030;-76
2021/01/22 09:23:52;;;;;;;1.75;1.58;;;8.20;66.00;;;;;;5021333;28;20121;-76
2021/01/22 09:26:18;;;;;;;1.55;1.25;;;8.30;66.10;;;;;;5020719;28;20402;-77
2021/01/22 09:28:45;;;;;;;1.73;1.42;;;8.30;66.10;;;;;;5018335;28;20042;-75
2021/01/22 09:31:11;;;;;;;1.60;1.50;;;8.30;66.10;;;;;;5017330;28;20037;-77
2021/01/22 09:33:36;;;;;;;1.75;1.33;;;8.40;66.80;;;;;;5021155;28;20051;-77
2021/01/22 09:36:02;;;;;;;2.15;1.50;;;8.60;66.40;;;;;;5019123;28;20052;-77
2021/01/22 09:38:27;;;;;;;2.15;1.77;;;8.50;66.30;;;;;;5024993;28;20462;-77
2021/01/22 09:40:53;;;;;;;5.18;2.00;;;8.60;66.30;;;;;;5019603;28;20598;-77
2021/01/22 09:43:18;;;;;;;1.77;1.48;;;8.70;66.40;;;;;;5019961;28;20117;-76
2021/01/22 09:45:44;;;;;;;1.67;1.40;;;8.70;66.20;;;;;;5019131;28;20490;-76
2021/01/22 09:48:10;;;;;;;1.40;1.30;;;8.80;66.20;;;;;;5017555;28;20103;-77
2021/01/22 09:50:36;;;;;;;2.35;1.55;;;8.80;66.10;;;;;;5017271;28;20037;-78
2021/01/22 09:53:01;;;;;;;1.70;1.60;;;8.90;66.10;;;;;;5014641;28;20554;-77
2021/01/22 09:55:27;;;;;;;2.08;1.60;;;8.90;66.00;;;;;;5017264;28;20032;-77
2021/01/22 09:57:53;;;;;;;2.97;1.45;;;9.00;66.00;;;;;;5016604;28;20060;-77
2021/01/22 10:00:18;;;;;;;2.58;1.88;;;9.00;65.90;;;;;;5000710;28;20056;-77
2021/01/22 10:02:44;;;;;;;1.73;1.40;;;9.10;65.90;;;;;;5018933;28;20029;-78
2021/01/22 10:05:10;;;;;;;2.33;1.52;;;9.10;65.90;;;;;;5019503;28;20069;-77
2021/01/22 10:07:36;;;;;;;5.40;1.80;;;9.10;66.00;;;;;;5018169;28;20034;-77
2021/01/22 10:10:03;;;;;;;1.40;1.00;;;9.20;66.10;;;;;;5021814;28;20509;-77
2021/01/22 10:12:29;;;;;;;1.70;1.60;;;9.30;66.10;;;;;;5017182;28;20041;-77
2021/01/22 10:14:54;;;;;;;1.50;1.30;;;9.30;66.00;;;;;;5021137;28;20029;-76
2021/01/22 10:17:20;;;;;;;1.83;1.30;;;9.30;66.50;;;;;;5021400;28;20509;-77
2021/01/22 10:19:46;;;;;;;3.05;1.38;;;9.40;66.00;;;;;;5022702;28;20079;-77
2021/01/22 10:22:11;;;;;;;1.75;1.10;;;9.40;66.00;;;;;;5022975;28;20137;-77
2021/01/22 10:24:37;;;;;;;3.60;1.73;;;9.50;66.00;;;;;;5017157;28;20029;-76
2021/01/22 10:27:03;;;;;;;2.95;1.50;;;9.60;66.10;;;;;;5023207;28;20163;-76
2021/01/22 10:29:28;;;;;;;2.63;1.30;;;9.60;66.10;;;;;;5027144;28;20026;-77
2021/01/22 10:31:54;;;;;;;3.80;1.50;;;9.70;66.10;;;;;;5021253;28;20043;-75
2021/01/22 10:34:19;;;;;;;1.80;1.23;;;9.70;66.10;;;;;;5019541;28;20692;-77
2021/01/22 10:36:45;;;;;;;2.88;1.25;;;9.90;66.20;;;;;;5019142;28;20862;-76
2021/01/22 10:39:10;;;;;;;1.60;1.35;;;9.80;66.10;;;;;;5018982;28;20033;-77
2021/01/22 10:41:37;;;;;;;4.03;1.50;;;9.90;65.90;;;;;;5015305;28;20037;-77
2021/01/22 10:44:04;;;;;;;1.95;1.55;;;9.90;65.60;;;;;;5021459;28;20030;-76
2021/01/22 10:46:31;;;;;;;2.97;1.70;;;10.00;65.60;;;;;;5016740;28;20129;-77
2021/01/22 10:48:57;;;;;;;2.33;1.38;;;10.00;65.40;;;;;;5019714;28;20119;-77
2021/01/22 10:51:22;;;;;;;2.20;1.77;;;10.10;65.30;;;;;;5012061;28;20491;-77
2021/01/22 10:53:48;;;;;;;4.10;2.15;;;10.10;65.20;;;;;;5015956;28;20041;-77
2021/01/22 10:56:13;;;;;;;2.50;1.73;;;10.10;65.00;;;;;;5013512;28;20255;-76
2021/01/22 10:58:39;;;;;;;6.22;1.88;;;10.10;64.90;;;;;;5020675;28;20060;-77
2021/01/22 11:01:04;;;;;;;3.30;1.70;;;10.20;64.80;;;;;;5017633;28;20053;-77
2021/01/22 11:03:30;;;;;;;2.67;1.98;;;10.10;64.70;;;;;;5018706;28;20124;-77
2021/01/22 11:05:56;;;;;;;2.22;2.03;;;10.10;64.70;;;;;;5019683;28;20487;-78
2021/01/22 11:08:22;;;;;;;2.72;1.60;;;10.10;65.00;;;;;;5016370;28;20441;-78
2021/01/22 11:10:47;;;;;;;2.58;1.70;;;10.10;65.10;;;;;;5016288;28;20033;-78
2021/01/22 11:13:13;;;;;;;1.77;1.52;;;10.10;65.20;;;;;;5018211;28;20038;-79
2021/01/22 11:15:38;;;;;;;2.72;1.80;;;10.20;65.30;;;;;;5018078;28;20065;-79
2021/01/22 11:18:04;;;;;;;2.72;1.55;;;10.20;65.30;;;;;;5013421;28;20403;-78
2021/01/22 11:20:30;;;;;;;3.15;1.83;;;10.20;65.30;;;;;;5018057;28;20026;-78
2021/01/22 11:22:55;;;;;;;3.20;1.65;;;10.30;65.20;;;;;;5016836;28;20048;-77
2021/01/22 11:25:21;;;;;;;3.35;1.80;;;10.30;65.00;;;;;;5017755;28;20128;-79
2021/01/22 11:27:47;;;;;;;2.70;2.13;;;10.40;64.90;;;;;;5014103;28;20047;-77
2021/01/22 11:30:14;;;;;;;2.45;1.98;;;10.40;64.90;;;;;;5014993;28;20026;-77
2021/01/22 11:32:40;;;;;;;1.83;1.48;;;10.40;64.90;;;;;;5016361;28;20037;-76
2021/01/22 11:35:10;;;;;;;2.08;1.70;;;10.40;65.10;;;;;;5016483;28;20144;-77
2021/01/22 11:37:37;;;;;;;2.70;2.22;;;10.50;65.30;;;;;;5017677;28;20042;-79
2021/01/22 11:40:04;;;;;;;3.70;2.40;;;10.50;65.10;;;;;;5021054;28;20037;-78
2021/01/22 11:42:29;;;;;;;2.65;1.70;;;10.60;65.10;;;;;;5020957;28;20548;-79
2021/01/22 11:44:55;;;;;;;2.00;1.77;;;10.70;65.20;;;;;;5021020;28;20034;-78
2021/01/22 11:47:20;;;;;;;2.88;2.30;;;10.70;65.10;;;;;;5026136;28;20112;-78
2021/01/22 11:49:46;;;;;;;1.92;1.67;;;10.60;65.00;;;;;;5025889;28;20083;-78
2021/01/22 11:52:11;;;;;;;3.13;1.90;;;10.70;65.60;;;;;;5026219;28;20467;-77
2021/01/22 11:54:37;;;;;;;3.13;2.47;;;10.80;65.20;;;;;;5025981;28;20037;-77
2021/01/22 11:57:04;;;;;;;3.33;2.25;;;10.80;65.00;;;;;;5026701;28;20077;-80
2021/01/22 11:59:30;;;;;;;2.15;1.73;;;10.90;64.90;;;;;;4998883;28;20084;-82
2021/01/22 12:01:55;;;;;;;4.43;2.33;;;10.90;64.80;;;;;;5023816;28;20026;-77
2021/01/22 12:04:21;;;;;;;2.13;1.73;;;11.00;64.60;;;;;;5025010;28;20026;-76
2021/01/22 12:06:46;;;;;;;2.22;2.03;;;11.20;64.60;;;;;;5024373;28;20040;-75
2021/01/22 12:09:12;;;;;;;1.65;1.50;;;11.10;64.50;;;;;;5025540;28;20418;-77
2021/01/22 12:11:37;;;;;;;1.52;1.35;;;11.10;64.40;;;;;;5025899;28;20038;-77
2021/01/22 12:14:03;;;;;;;1.85;1.52;;;11.10;64.30;;;;;;5026421;28;20420;-73
2021/01/22 12:16:28;;;;;;;2.10;1.80;;;11.10;64.20;;;;;;5024472;28;20053;-76
2021/01/22 12:18:54;;;;;;;2.42;1.65;;;11.10;64.40;;;;;;5028760;28;20048;-74
2021/01/22 12:21:19;;;;;;;2.90;2.03;;;11.20;64.40;;;;;;5029650;28;20164;-73
2021/01/22 12:23:45;;;;;;;2.28;2.00;;;11.20;64.30;;;;;;5025978;28;20038;-73
2021/01/22 12:26:12;;;;;;;2.63;1.58;;;11.30;64.30;;;;;;5029314;28;20403;-75
2021/01/22 12:28:38;;;;;;;1.85;1.52;;;11.30;64.10;;;;;;5029291;28;20400;-73
2021/01/22 12:31:04;;;;;;;2.42;1.67;;;11.30;64.00;;;;;;5011261;28;20029;-73
2021/01/22 12:33:30;;;;;;;3.20;1.80;;;11.50;64.00;;;;;;5029509;28;20033;-73
2021/01/22 12:35:56;;;;;;;2.33;2.00;;;11.40;63.70;;;;;;5029674;28;20041;-75
2021/01/22 12:38:22;;;;;;;1.75;1.50;;;11.50;63.60;;;;;;5027923;28;20033;-74
2021/01/22 12:40:47;;;;;;;2.85;1.60;;;11.40;63.60;;;;;;5025195;28;20034;-74
2021/01/22 12:43:13;;;;;;;2.08;1.80;;;11.50;63.70;;;;;;5026776;28;20033;-73
2021/01/22 12:45:38;;;;;;;4.40;2.17;;;11.40;63.70;;;;;;5010469;28;20034;-73
2021/01/22 12:48:05;;;;;;;1.92;1.60;;;11.40;63.40;;;;;;5027078;28;20029;-73
2021/01/22 12:50:31;;;;;;;2.75;1.38;;;11.40;63.30;;;;;;5027695;28;20533;-73
2021/01/22 12:52:57;;;;;;;3.13;1.50;;;11.40;63.20;;;;;;5065477;22;20041;-76
2021/01/22 12:55:23;;;;;;;2.28;1.35;;;11.40;63.10;;;;;;5026176;28;20041;-75